Time;durP1;ratioP1;P1;durP2;ratioP2;P2;SDS_P1;SDS_P2;PMS_P1;PMS_P2;Temp;Humidity;BMP_temperature;BMP_pressure;BME280_temperature;BME280_humidity;BME280_pressure;Samples;Min_cycle;Max_cycle;Signal;HPM_P1;HPM_P2
2022/09/02 00:01:18;;;;;;;16.10;10.43;;;;;;;23.12;100.00;99704.81;5087699;28;20027;-28
2022/09/02 00:03:45;;;;;;;14.50;9.90;;;;;;;23.21;100.00;99719.28;5087806;28;20023;-28
2022/09/02 00:06:11;;;;;;;14.90;9.70;;;;;;;23.01;100.00;99707.00;5105815;28;20613;-32
2022/09/02 00:08:37;;;;;;;16.40;10.85;;;;;;;23.08;100.00;99717.44;5105803;28;20032;-33
2022/09/02 00:11:05;;;;;;;15.98;9.43;;;;;;;23.05;100.00;99720.78;5105958;28;20039;-31
2022/09/02 00:13:32;;;;;;;14.38;9.82;;;;;;;23.00;100.00;99712.72;5087983;28;20031;-30
2022/09/02 00:15:58;;;;;;;14.98;10.07;;;;;;;23.16;100.00;99716.69;5106631;28;20046;-30
2022/09/02 00:18:25;;;;;;;16.83;9.77;;;;;;;23.19;99.83;99716.06;5106309;28;20027;-30
2022/09/02 00:20:51;;;;;;;15.60;10.05;;;;;;;23.09;100.00;99716.34;5087915;28;20023;-29
2022/09/02 00:23:17;;;;;;;13.82;9.65;;;;;;;23.18;100.00;99722.63;5105864;28;20103;-27
2022/09/02 00:25:44;;;;;;;15.15;9.27;;;;;;;23.24;98.78;99718.66;5087908;28;21016;-32
2022/09/02 00:28:11;;;;;;;14.48;10.27;;;;;;;23.21;99.20;99724.72;5087840;28;20118;-29
2022/09/02 00:30:38;;;;;;;13.00;9.27;;;;;;;23.13;98.70;99711.88;5087815;28;20833;-34
2022/09/02 00:33:04;;;;;;;12.90;8.68;;;;;;;23.00;99.70;99710.00;5087362;28;20054;-27
2022/09/02 00:35:30;;;;;;;15.18;9.25;;;;;;;23.04;99.60;99708.28;5106079;28;20483;-28
2022/09/02 00:37:56;;;;;;;13.85;9.82;;;;;;;23.09;98.62;99699.19;5087526;28;20030;-31
2022/09/02 00:40:22;;;;;;;15.75;9.55;;;;;;;22.89;100.00;99711.38;5105798;28;20847;-31
2022/09/02 00:42:49;;;;;;;14.15;9.25;;;;;;;22.97;100.00;99713.34;5106075;28;20036;-29
2022/09/02 00:45:17;;;;;;;16.02;9.52;;;;;;;23.00;99.46;99702.63;5086924;28;20051;-28
2022/09/02 00:47:44;;;;;;;;;;;;;;;23.11;99.00;99705.94;5087771;28;20396;-30
2022/09/02 00:50:13;;;;;;;13.05;9.05;;;;;;;23.16;98.52;99710.44;5087430;28;19904;-29
2022/09/02 00:52:44;;;;;;;15.05;9.48;;;;;;;22.85;99.16;99679.34;5087551;28;20035;-28
2022/09/02 00:55:15;;;;;;;13.73;9.10;;;;;;;22.72;99.53;99674.81;5105700;28;20053;-32
2022/09/02 00:57:46;;;;;;;14.35;9.70;;;;;;;22.93;99.95;99696.84;5087658;28;20128;-28
2022/09/02 01:00:21;;;;;;;12.02;9.30;;;;;;;22.90;99.65;99702.09;5087254;28;20053;-28
2022/09/02 01:02:55;;;;;;;15.23;9.32;;;;;;;22.93;99.37;99701.50;5087598;28;20031;-28
2022/09/02 01:05:23;;;;;;;14.43;9.07;;;;;;;22.91;99.05;99685.47;5087176;28;20016;-34
2022/09/02 01:07:50;;;;;;;16.73;10.05;;;;;;;22.85;100.00;99703.81;5105861;28;20035;-29
2022/09/02 01:10:20;;;;;;;16.67;9.85;;;;;;;22.86;99.42;99702.72;5087378;28;20410;-29
2022/09/02 01:12:46;;;;;;;12.40;8.82;;;;;;;22.81;100.00;99697.41;5105565;28;20475;-29
2022/09/02 01:15:14;;;;;;;13.70;8.13;;;;;;;22.87;98.66;99688.00;5105519;28;20031;-29
2022/09/02 01:17:47;;;;;;;14.02;9.27;;;;;;;22.69;99.98;99686.28;5105679;28;20034;-29
2022/09/02 01:20:17;;;;;;;13.95;9.63;;;;;;;22.53;100.00;99712.22;5087244;28;20112;-31
2022/09/02 01:22:44;;;;;;;13.70;9.43;;;;;;;22.58;100.00;99699.31;5091046;28;20766;-28
2022/09/02 01:25:18;;;;;;;12.05;9.27;;;;;;;22.67;100.00;99704.81;5108592;28;20110;-29
2022/09/02 01:27:45;;;;;;;12.85;8.85;;;;;;;22.75;100.00;99706.00;5091003;28;20411;-32
2022/09/02 01:30:15;;;;;;;12.73;9.23;;;;;;;22.80;100.00;99709.41;5090791;28;20084;-30
2022/09/02 01:32:41;;;;;;;13.30;8.85;;;;;;;22.53;100.00;99698.63;5090787;28;20092;-29
2022/09/02 01:35:07;;;;;;;14.38;9.50;;;;;;;22.72;100.00;99706.59;5108763;28;20016;-28
2022/09/02 01:37:33;;;;;;;15.05;9.18;;;;;;;22.52;100.00;99694.31;5090303;28;20028;-30
2022/09/02 01:39:59;;;;;;;12.38;9.10;;;;;;;22.61;100.00;99706.03;5090345;28;20038;-33
2022/09/02 01:42:25;;;;;;;13.70;9.57;;;;;;;22.71;100.00;99705.81;5090326;28;20035;-29
2022/09/02 01:44:51;;;;;;;12.73;8.50;;;;;;;22.78;99.63;99706.19;5108601;28;20027;-28
2022/09/02 01:47:21;;;;;;;13.65;9.25;;;;;;;22.87;99.55;99693.44;5108393;28;21253;-29
2022/09/02 01:49:47;;;;;;;11.48;8.73;;;;;;;22.74;100.00;99704.38;5090219;28;20414;-30
2022/09/02 01:52:14;;;;;;;11.35;8.65;;;;;;;22.75;98.87;99673.38;5090005;28;20059;-30
2022/09/02 01:54:40;;;;;;;14.57;9.05;;;;;;;22.69;99.50;99686.28;5090433;28;20567;-29
2022/09/02 01:57:06;;;;;;;15.13;9.05;;;;;;;22.78;99.45;99698.03;5108294;28;20164;-30
2022/09/02 01:59:32;;;;;;;12.90;8.85;;;;;;;22.84;99.08;99698.69;5090396;28;20027;-28
2022/09/02 02:01:57;;;;;;;13.75;9.40;;;;;;;22.89;98.76;99705.94;5108409;28;20038;-28
2022/09/02 02:04:23;;;;;;;15.70;10.02;;;;;;;22.87;99.03;99693.44;5108538;28;20499;-29
2022/09/02 02:06:49;;;;;;;13.80;10.00;;;;;;;22.96;98.74;99701.66;5108164;28;20768;-33
2022/09/02 02:09:16;;;;;;;15.43;9.50;;;;;;;22.91;99.32;99704.50;5089977;28;20028;-30
2022/09/02 02:11:42;;;;;;;14.52;9.20;;;;;;;22.96;98.73;99711.72;5108209;28;20518;-29
2022/09/02 02:14:08;;;;;;;15.52;9.10;;;;;;;22.60;100.00;99693.59;5108111;28;20114;-29
2022/09/02 02:16:34;;;;;;;13.07;9.48;;;;;;;22.46;100.00;99697.13;5089716;28;20070;-29
2022/09/02 02:18:59;;;;;;;12.98;9.38;;;;;;;22.57;100.00;99707.78;5107844;28;20052;-28
2022/09/02 02:21:25;;;;;;;12.82;8.93;;;;;;;22.73;99.85;99709.03;5107957;28;20024;-29
2022/09/02 02:23:51;;;;;;;13.15;9.10;;;;;;;22.56;100.00;99692.59;5107789;28;20035;-29
2022/09/02 02:26:17;;;;;;;13.57;9.68;;;;;;;22.57;99.82;99672.44;5108012;28;20109;-28
2022/09/02 02:28:42;;;;;;;12.27;8.63;;;;;;;22.66;100.00;99698.59;5089490;28;20515;-31
2022/09/02 02:31:08;;;;;;;12.70;9.05;;;;;;;22.93;98.52;99699.56;5107347;28;20032;-31
2022/09/02 02:33:34;;;;;;;15.18;9.90;;;;;;;22.81;98.65;99702.03;5089337;28;20506;-29
2022/09/02 02:36:00;;;;;;;14.45;9.15;;;;;;;22.70;99.79;99701.50;5089037;28;20062;-31
2022/09/02 02:38:26;;;;;;;14.13;8.82;;;;;;;22.72;99.00;99696.56;5089469;28;20182;-34
2022/09/02 02:40:56;;;;;;;13.52;8.77;;;;;;;22.67;99.67;99705.59;5107745;28;20505;-31
2022/09/02 02:43:23;;;;;;;16.63;9.35;;;;;;;22.56;99.90;99692.59;5107718;28;20110;-29
2022/09/02 02:45:48;;;;;;;13.30;8.93;;;;;;;22.48;100.00;99691.41;5088861;28;20051;-29
2022/09/02 02:48:14;;;;;;;17.17;10.85;;;;;;;22.74;99.54;99694.34;5107590;28;20031;-29
2022/09/02 02:50:40;;;;;;;14.60;9.35;;;;;;;22.77;99.21;99690.97;5107972;28;20485;-29
2022/09/02 02:53:06;;;;;;;14.57;9.50;;;;;;;22.94;98.44;99692.19;5088920;28;20031;-32
2022/09/02 02:55:31;;;;;;;24.40;11.57;;;;;;;22.95;98.34;99683.75;5107514;28;20510;-31
2022/09/02 02:57:57;;;;;;;13.88;10.30;;;;;;;23.00;97.69;99696.41;5107399;28;20051;-33
2022/09/02 03:00:27;;;;;;;14.85;9.85;;;;;;;22.84;99.21;99694.06;5107584;28;20472;-28
2022/09/02 03:02:57;;;;;;;18.13;10.52;;;;;;;22.83;99.07;99684.31;5107134;28;20539;-29
2022/09/02 03:05:23;;;;;;;13.77;10.48;;;;;;;22.93;99.25;99696.84;5088543;28;20031;-33
2022/09/02 03:07:49;;;;;;;15.55;9.52;;;;;;;22.89;98.90;99695.84;5088855;28;20027;-31
2022/09/02 03:10:15;;;;;;;13.00;9.90;;;;;;;22.84;99.06;99685.91;5107146;28;20019;-29
2022/09/02 03:12:41;;;;;;;13.57;10.05;;;;;;;23.06;97.27;99684.31;5107113;28;20027;-32
2022/09/02 03:15:10;;;;;;;15.68;11.15;;;;;;;23.10;97.08;99695.38;5088991;28;20114;-28
2022/09/02 03:17:36;;;;;;;14.70;10.27;;;;;;;23.13;96.54;99692.84;5106868;28;20024;-32
2022/09/02 03:20:05;;;;;;;12.18;9.38;;;;;;;22.91;97.63;99696.34;5107025;28;20038;-31
2022/09/02 03:22:30;;;;;;;14.75;9.70;;;;;;;22.79;98.24;99699.63;5107104;28;20085;-29
2022/09/02 03:24:56;;;;;;;17.30;10.75;;;;;;;22.74;98.50;99694.34;5088572;28;20426;-32
2022/09/02 03:27:21;;;;;;;18.27;10.27;;;;;;;22.78;97.89;99700.75;5106715;28;20039;-31
2022/09/02 03:29:46;;;;;;;16.30;9.93;;;;;;;22.70;98.86;99708.81;5106992;28;20054;-31
2022/09/02 03:32:12;;;;;;;13.30;9.90;;;;;;;22.63;99.87;99709.25;5106858;28;20384;-29
2022/09/02 03:34:37;;;;;;;13.77;9.57;;;;;;;22.58;100.00;99704.75;5106745;28;20032;-28
2022/09/02 03:37:03;;;;;;;13.57;9.57;;;;;;;22.41;100.00;99697.28;5106758;28;20468;-28
2022/09/02 03:39:28;;;;;;;14.52;9.93;;;;;;;22.38;100.00;99686.22;5106595;28;20441;-28
2022/09/02 03:41:54;;;;;;;16.13;11.10;;;;;;;22.24;100.00;99691.69;5106649;28;20106;-31
2022/09/02 03:44:19;;;;;;;14.65;10.80;;;;;;;22.06;100.00;99680.59;5105620;28;20182;-28
2022/09/02 03:46:45;;;;;;;15.10;10.23;;;;;;;22.11;100.00;99697.91;5106110;28;20131;-32
2022/09/02 03:49:11;;;;;;;12.25;9.25;;;;;;;21.97;100.00;99687.88;5087673;28;20032;-28
2022/09/02 03:51:41;;;;;;;16.50;10.02;;;;;;;22.00;100.00;99703.53;5106506;28;20414;-31
2022/09/02 03:54:07;;;;;;;17.85;10.50;;;;;;;22.00;100.00;99695.41;5088042;28;20038;-32
2022/09/02 03:56:33;;;;;;;14.98;10.90;;;;;;;21.81;100.00;99683.88;5106311;28;20395;-32
2022/09/02 03:58:59;;;;;;;13.23;9.98;;;;;;;21.91;100.00;99705.38;5106285;28;20139;-28
2022/09/02 04:01:26;;;;;;;13.98;10.13;;;;;;;21.90;100.00;99694.81;5106305;28;20051;-30
2022/09/02 04:03:52;;;;;;;14.75;11.02;;;;;;;22.07;100.00;99714.81;5088173;28;20566;-32
2022/09/02 04:06:20;;;;;;;14.85;10.05;;;;;;;22.15;100.00;99709.75;5106169;28;20624;-28
2022/09/02 04:08:47;;;;;;;15.50;9.90;;;;;;;22.17;100.00;99712.97;5106182;28;20447;-32
2022/09/02 04:11:16;;;;;;;14.77;10.18;;;;;;;22.12;100.00;99704.94;5087637;28;20032;-32
2022/09/02 04:13:42;;;;;;;18.38;10.05;;;;;;;22.10;100.00;99712.59;5087802;28;20910;-28
2022/09/02 04:16:11;;;;;;;12.65;10.30;;;;;;;22.27;100.00;99716.31;5087761;28;20020;-29
2022/09/02 04:18:37;;;;;;;13.48;9.45;;;;;;;22.35;100.00;99720.22;5087794;28;20518;-30
2022/09/02 04:21:03;;;;;;;13.07;10.05;;;;;;;22.41;100.00;99724.44;5106079;28;20055;-28
2022/09/02 04:23:29;;;;;;;18.45;10.40;;;;;;;22.17;100.00;99735.53;5087634;28;20055;-29
2022/09/02 04:25:54;;;;;;;16.65;10.38;;;;;;;22.14;100.00;99710.88;5087594;28;20154;-32
2022/09/02 04:28:20;;;;;;;14.30;10.00;;;;;;;22.22;100.00;99721.03;5106118;28;20024;-32
2022/09/02 04:30:46;;;;;;;17.42;9.98;;;;;;;22.42;100.00;99734.19;5087353;28;20414;-30
2022/09/02 04:33:12;;;;;;;17.17;10.25;;;;;;;22.59;99.63;99722.66;5105998;28;20463;-29
2022/09/02 04:35:46;;;;;;;14.75;10.13;;;;;;;22.62;99.91;99740.28;5087730;28;20513;-33
2022/09/02 04:38:13;;;;;;;12.60;10.25;;;;;;;22.51;100.00;99733.47;5106153;28;20110;-34
2022/09/02 04:40:41;;;;;;;14.43;9.82;;;;;;;22.65;98.93;99734.22;5087720;28;20023;-29
2022/09/02 04:43:07;;;;;;;14.45;9.77;;;;;;;22.72;99.45;99750.91;5105724;28;20038;-30
2022/09/02 04:45:32;;;;;;;11.32;9.50;;;;;;;22.64;99.04;99744.28;5105672;28;20751;-28
2022/09/02 04:47:57;;;;;;;12.18;9.38;;;;;;;22.65;98.63;99736.94;5087967;28;20111;-31
2022/09/02 04:50:23;;;;;;;12.68;9.57;;;;;;;22.80;98.75;99750.19;5105921;28;20047;-31
2022/09/02 04:52:48;;;;;;;12.20;9.05;;;;;;;22.89;98.75;99749.44;5106006;28;20471;-30
2022/09/02 04:55:14;;;;;;;15.70;10.20;;;;;;;22.85;98.34;99738.38;5107174;28;20023;-33
2022/09/02 04:57:39;;;;;;;13.43;8.90;;;;;;;22.74;98.88;99754.13;5109529;28;20024;-29
2022/09/02 05:00:06;;;;;;;13.15;8.65;;;;;;;22.90;98.02;99759.19;5109858;28;20459;-28
2022/09/02 05:02:32;;;;;;;13.60;8.88;;;;;;;23.09;97.19;99754.41;5091245;28;20027;-28
2022/09/02 05:04:58;;;;;;;12.45;8.45;;;;;;;23.24;96.63;99751.28;5109927;28;20097;-34
2022/09/02 05:07:24;;;;;;;12.38;8.35;;;;;;;23.50;94.19;99747.91;5109366;28;20104;-30
2022/09/02 05:09:58;;;;;;;14.75;8.75;;;;;;;23.61;93.93;99762.84;5109583;28;20027;-32
2022/09/02 05:12:26;;;;;;;12.77;8.30;;;;;;;23.54;94.22;99754.34;5090928;28;20062;-33
2022/09/02 05:14:54;;;;;;;12.52;8.25;;;;;;;23.40;94.80;99759.06;5109658;28;20067;-30
2022/09/02 05:17:20;;;;;;;11.02;8.05;;;;;;;23.11;95.99;99754.06;5109239;28;20974;-28
2022/09/02 05:19:46;;;;;;;13.45;8.45;;;;;;;23.48;94.61;99766.47;5091094;28;20039;-37
2022/09/02 05:22:11;;;;;;;12.85;8.57;;;;;;;23.46;94.29;99752.38;5109599;28;20027;-28
2022/09/02 05:24:37;;;;;;;12.52;7.93;;;;;;;23.61;93.53;99743.00;5109186;28;20031;-30
2022/09/02 05:27:03;;;;;;;11.75;7.68;;;;;;;23.50;93.82;99753.38;5090598;28;20537;-28
2022/09/02 05:29:28;;;;;;;11.20;7.93;;;;;;;23.88;92.61;99752.88;5109133;28;20039;-28
2022/09/02 05:31:54;;;;;;;11.63;6.85;;;;;;;23.75;92.45;99754.59;5109526;28;20044;-31
2022/09/02 05:34:19;;;;;;;10.38;7.93;;;;;;;23.78;92.11;99743.09;5109141;28;20028;-29
2022/09/02 05:36:45;;;;;;;12.90;7.25;;;;;;;23.77;91.28;99743.41;5109273;28;20040;-28
2022/09/02 05:39:11;;;;;;;13.05;7.97;;;;;;;23.78;92.11;99734.13;5108555;28;20027;-28
2022/09/02 05:41:36;;;;;;;12.45;7.20;;;;;;;23.93;91.76;99747.31;5108923;28;20035;-28
2022/09/02 05:44:03;;;;;;;12.02;7.88;;;;;;;24.16;91.32;99752.66;5109029;28;20024;-31
2022/09/02 05:46:29;;;;;;;13.40;8.57;;;;;;;24.08;91.59;99737.09;5090212;28;20048;-33
2022/09/02 05:49:05;;;;;;;11.65;7.35;;;;;;;24.03;90.74;99740.78;5090672;28;20403;-28
2022/09/02 05:51:40;;;;;;;11.65;7.38;;;;;;;24.05;90.60;99746.72;5090425;28;20032;-28
2022/09/02 05:54:08;;;;;;;10.00;7.22;;;;;;;23.93;90.78;99717.34;5089921;28;20028;-31
2022/09/02 05:56:33;;;;;;;13.32;8.05;;;;;;;24.17;90.96;99732.44;5090227;28;20031;-29
2022/09/02 05:58:59;;;;;;;11.25;7.43;;;;;;;24.36;90.34;99729.44;5090403;28;20088;-31
2022/09/02 06:01:25;;;;;;;12.50;8.30;;;;;;;24.40;88.14;99712.13;5108292;28;20473;-31
2022/09/02 06:03:51;;;;;;;13.32;7.75;;;;;;;24.27;89.35;99729.41;5090083;28;20023;-28
2022/09/02 06:06:18;;;;;;;13.50;8.25;;;;;;;24.58;88.35;99742.97;5107397;28;20027;-29
2022/09/02 06:08:44;;;;;;;12.15;7.68;;;;;;;24.60;87.94;99729.00;5089972;28;20452;-29
2022/09/02 06:11:11;;;;;;;13.13;7.15;;;;;;;24.90;87.33;99748.25;5089671;28;20039;-32
2022/09/02 06:13:39;;;;;;;12.95;7.47;;;;;;;24.79;86.28;99742.31;5090042;28;20028;-29
2022/09/02 06:16:07;;;;;;;9.80;7.53;;;;;;;24.58;87.56;99739.41;5090163;28;20521;-30
2022/09/02 06:18:33;;;;;;;12.30;8.05;;;;;;;24.46;88.38;99740.84;5108446;28;20032;-29
2022/09/02 06:21:00;;;;;;;13.48;7.93;;;;;;;24.69;88.61;99748.88;5089548;28;20050;-28
2022/09/02 06:23:26;;;;;;;12.25;7.80;;;;;;;24.44;87.95;99739.56;5108325;28;20024;-28
2022/09/02 06:25:51;;;;;;;9.60;7.25;;;;;;;24.34;88.15;99748.03;5108260;28;20080;-28
2022/09/02 06:28:17;;;;;;;11.13;6.93;;;;;;;24.23;89.91;99753.81;5108125;28;20023;-28
2022/09/02 06:30:45;;;;;;;10.80;7.80;;;;;;;24.06;89.99;99760.00;5107956;28;20035;-29
2022/09/02 06:33:11;;;;;;;13.65;8.00;;;;;;;24.28;88.86;99744.66;5089526;28;20023;-30
2022/09/02 06:35:43;;;;;;;12.18;7.60;;;;;;;24.04;89.10;99758.72;5107963;28;20036;-28
2022/09/02 06:38:10;;;;;;;9.82;7.57;;;;;;;23.94;90.78;99748.91;5089601;28;20042;-28
2022/09/02 06:40:44;;;;;;;11.23;7.07;;;;;;;24.15;89.82;99764.66;5108023;28;20027;-34
2022/09/02 06:43:10;;;;;;;12.38;8.05;;;;;;;24.03;90.79;99759.84;5089437;28;20118;-29
2022/09/02 06:45:39;;;;;;;13.27;7.82;;;;;;;24.17;90.60;99765.97;5107488;28;20476;-32
2022/09/02 06:48:05;;;;;;;13.35;7.80;;;;;;;24.24;88.93;99771.75;5089225;28;20047;-29
2022/09/02 06:50:30;;;;;;;12.38;7.70;;;;;;;24.07;88.78;99760.81;5107887;28;20857;-28
2022/09/02 06:52:56;;;;;;;13.27;7.72;;;;;;;24.17;89.16;99778.78;5107921;28;20028;-29
2022/09/02 06:55:21;;;;;;;11.65;8.45;;;;;;;24.25;89.09;99783.44;5107322;28;20059;-28
2022/09/02 06:57:47;;;;;;;15.40;8.27;;;;;;;24.40;87.81;99791.16;5107355;28;20536;-32
2022/09/02 07:00:13;;;;;;;13.82;8.80;;;;;;;24.26;88.39;99774.94;5107324;28;20028;-30
2022/09/02 07:02:38;;;;;;;12.85;7.93;;;;;;;24.36;88.33;99776.56;5107122;28;20087;-29
2022/09/02 07:05:13;;;;;;;13.63;8.98;;;;;;;24.53;87.32;99780.47;5107194;28;20028;-28
2022/09/02 07:07:41;;;;;;;12.25;8.20;;;;;;;24.64;87.23;99790.75;5089110;28;20023;-28
2022/09/02 07:10:09;;;;;;;15.25;8.82;;;;;;;24.91;86.51;99788.00;5088742;28;20042;-29
2022/09/02 07:12:36;;;;;;;13.60;8.80;;;;;;;24.87;85.44;99790.59;5088741;28;20127;-35
2022/09/02 07:15:02;;;;;;;13.60;8.15;;;;;;;24.85;85.78;99792.84;5088584;28;20059;-29
2022/09/02 07:17:28;;;;;;;11.70;8.27;;;;;;;25.31;84.28;99796.03;5088572;28;20032;-28
2022/09/02 07:19:58;;;;;;;12.23;8.45;;;;;;;25.48;83.37;99789.72;5107345;28;20084;-29
2022/09/02 07:22:24;;;;;;;12.82;7.90;;;;;;;25.93;82.22;99789.25;5088705;28;20023;-30
2022/09/02 07:24:50;;;;;;;12.45;8.57;;;;;;;26.01;79.15;99774.75;5088764;28;20108;-28
2022/09/02 07:27:16;;;;;;;11.15;7.82;;;;;;;26.22;79.69;99783.03;5106501;28;20394;-28
2022/09/02 07:29:44;;;;;;;11.48;8.35;;;;;;;26.36;79.40;99790.97;5106671;28;20061;-30
2022/09/02 07:32:10;;;;;;;13.40;8.80;;;;;;;26.69;78.54;99793.03;5088445;28;20051;-35
2022/09/02 07:34:35;;;;;;;12.70;8.10;;;;;;;26.68;77.85;99794.16;5107020;28;20104;-30
2022/09/02 07:37:01;;;;;;;13.00;8.15;;;;;;;26.64;77.84;99770.22;5088189;28;20032;-27
2022/09/02 07:39:26;;;;;;;10.75;8.27;;;;;;;26.72;76.95;99787.66;5106772;28;20514;-31
2022/09/02 07:41:52;;;;;;;14.15;9.48;;;;;;;26.76;78.83;99783.13;5106929;28;20340;-33
2022/09/02 07:44:19;;;;;;;11.35;7.95;;;;;;;26.81;76.40;99785.69;5106525;28;20023;-28
2022/09/02 07:46:45;;;;;;;;;;;;;;;26.34;77.84;99794.03;5088529;28;20059;-32
2022/09/02 07:49:12;;;;;;;12.40;8.60;;;;;;;26.27;78.37;99793.75;5106581;28;19912;-29
2022/09/02 07:51:42;;;;;;;10.57;8.50;;;;;;;26.29;78.72;99790.69;5106729;28;20043;-33
2022/09/02 07:54:10;;;;;;;13.35;8.77;;;;;;;26.41;76.75;99791.56;5088354;28;20024;-29
2022/09/02 07:56:35;;;;;;;;;;;;;;;26.29;77.53;99798.91;5088583;28;20074;-30
2022/09/02 07:59:01;;;;;;;11.27;8.85;;;;;;;26.41;77.31;99794.31;5106319;28;20359;-37
2022/09/02 08:01:27;;;;;;;13.13;8.52;;;;;;;26.24;77.62;99783.50;5106628;28;20024;-31
2022/09/02 08:03:53;;;;;;;12.07;8.60;;;;;;;26.36;77.95;99777.31;5088275;28;20106;-29
2022/09/02 08:06:22;;;;;;;13.27;9.57;;;;;;;26.38;77.52;99781.31;5088156;28;20023;-29
2022/09/02 08:08:48;;;;;;;13.63;9.68;;;;;;;26.48;77.75;99792.97;5106489;28;20035;-30
2022/09/02 08:11:13;;;;;;;15.13;9.63;;;;;;;26.85;77.50;99772.94;5106188;28;20482;-28
2022/09/02 08:13:39;;;;;;;13.10;9.38;;;;;;;27.29;74.94;99790.91;5106604;28;20051;-28
2022/09/02 08:16:05;;;;;;;14.93;9.18;;;;;;;27.63;73.41;99782.31;5106585;28;20104;-33
2022/09/02 08:18:31;;;;;;;12.15;8.90;;;;;;;27.49;72.46;99781.81;5088050;28;20388;-31
2022/09/02 08:20:57;;;;;;;14.35;10.02;;;;;;;27.62;73.46;99752.50;5088033;28;20032;-31
2022/09/02 08:23:22;;;;;;;13.27;10.15;;;;;;;27.44;73.25;99758.22;5106093;28;20471;-33
2022/09/02 08:25:48;;;;;;;13.57;9.68;;;;;;;27.60;72.58;99750.13;5106155;28;20020;-31
2022/09/02 08:28:14;;;;;;;10.75;9.35;;;;;;;27.89;71.28;99758.47;5106277;28;20115;-29
2022/09/02 08:30:39;;;;;;;11.90;9.25;;;;;;;28.02;71.40;99766.38;5108681;28;20054;-30
2022/09/02 08:33:05;;;;;;;15.00;9.90;;;;;;;28.44;69.71;99760.59;5091698;28;20114;-29
2022/09/02 08:35:30;;;;;;;13.40;9.63;;;;;;;28.64;69.94;99771.75;5110397;28;20019;-28
2022/09/02 08:37:59;;;;;;;10.63;8.93;;;;;;;28.41;67.96;99750.31;5110766;28;20160;-30
2022/09/02 08:40:36;;;;;;;14.00;9.60;;;;;;;28.56;67.76;99750.75;5091747;28;20043;-29
2022/09/02 08:43:12;;;;;;;14.25;8.88;;;;;;;28.77;66.24;99734.91;5091779;28;20035;-28
2022/09/02 08:45:39;;;;;;;12.85;9.20;;;;;;;28.89;66.85;99736.00;5088235;28;20058;-31
2022/09/02 08:48:17;;;;;;;13.98;9.23;;;;;;;28.84;66.52;99740.59;5088571;28;20039;-30
2022/09/02 08:50:45;;;;;;;15.05;11.05;;;;;;;28.68;67.14;99737.00;5088234;28;20561;-38
2022/09/02 08:53:25;;;;;;;13.30;9.95;;;;;;;28.84;65.59;99734.31;5088020;28;20058;-31
2022/09/02 08:55:55;;;;;;;13.07;8.88;;;;;;;29.35;64.30;99730.97;5088556;28;20032;-29
2022/09/02 08:58:24;;;;;;;12.38;9.23;;;;;;;29.38;63.88;99724.75;5088358;28;20032;-29
2022/09/02 09:01:04;;;;;;;13.43;8.23;;;;;;;29.35;62.05;99722.72;5088149;28;20028;-29
2022/09/02 09:03:52;;;;;;;13.25;8.45;;;;;;;29.39;64.36;99715.38;5087887;28;20056;-28
2022/09/02 09:06:30;;;;;;;13.25;9.30;;;;;;;29.95;62.61;99726.16;5089424;28;20028;-31
2022/09/02 09:09:08;;;;;;;12.75;8.27;;;;;;;29.82;59.32;99710.94;5088318;28;20032;-29
2022/09/02 09:11:39;;;;;;;12.77;8.18;;;;;;;30.29;59.49;99722.97;5089579;28;20127;-30
2022/09/02 09:14:14;;;;;;;10.93;6.90;;;;;;;30.09;57.63;99716.66;5087938;28;20040;-28
2022/09/02 09:16:45;;;;;;;9.95;7.07;;;;;;;29.95;60.00;99706.13;5088006;28;20028;-28
2022/09/02 09:19:12;;;;;;;12.02;7.70;;;;;;;29.96;58.17;99692.03;5089087;28;20024;-30
2022/09/02 09:21:39;;;;;;;11.85;8.30;;;;;;;29.99;59.79;99690.50;5089161;28;20112;-30
2022/09/02 09:24:38;;;;;;;8.48;7.55;;;;;;;29.94;59.91;99679.81;5089054;28;20040;-28
2022/09/02 09:27:07;;;;;;;12.30;7.57;;;;;;;30.10;58.63;99672.28;5083496;28;20028;-30
2022/09/02 09:29:35;;;;;;;11.13;8.35;;;;;;;30.30;60.05;99680.56;5087686;28;20777;-28
2022/09/02 09:32:01;;;;;;;11.80;8.63;;;;;;;30.23;58.67;99687.50;5087386;28;20107;-28
2022/09/02 09:35:00;;;;;;;14.00;8.27;;;;;;;30.29;59.36;99690.75;5087757;28;20028;-28
2022/09/02 09:37:37;;;;;;;12.90;8.43;;;;;;;30.06;59.35;99685.19;5088809;28;20609;-28
2022/09/02 09:40:29;;;;;;;9.07;7.50;;;;;;;30.48;60.43;99683.69;5088778;28;20089;-29
2022/09/02 09:43:04;;;;;;;12.27;7.47;;;;;;;29.99;58.77;99680.28;5075643;28;20539;-31
2022/09/02 09:45:31;;;;;;;9.80;7.40;;;;;;;30.27;57.48;99671.06;5093384;28;20055;-30
2022/09/02 09:48:06;;;;;;;8.37;7.23;;;;;;;30.54;55.02;99662.97;5108772;28;20069;-30
2022/09/02 09:50:32;;;;;;;12.73;7.05;;;;;;;30.80;53.63;99643.81;5090573;28;20028;-28
2022/09/02 09:53:19;;;;;;;11.40;7.18;;;;;;;30.73;55.55;99653.91;5090454;28;20031;-30
2022/09/02 09:56:06;;;;;;;;;;;;;;;30.89;55.45;99656.59;5109120;28;20035;-32
2022/09/02 09:58:41;;;;;;;15.55;7.50;;;;;;;31.04;53.26;99663.94;5090127;28;19903;-30
2022/09/02 10:01:25;;;;;;;11.27;6.80;;;;;;;31.09;51.93;99663.63;5090238;28;20475;-36
2022/09/02 10:04:24;;;;;;;11.40;6.65;;;;;;;30.93;52.78;99699.53;5108577;28;20118;-29
2022/09/02 10:06:50;;;;;;;9.25;6.20;;;;;;;30.83;54.49;99686.34;5108518;28;20107;-30
2022/09/02 10:09:21;;;;;;;11.88;6.53;;;;;;;30.29;52.17;99690.75;5108408;28;20035;-33
2022/09/02 10:12:04;;;;;;;11.57;6.63;;;;;;;30.46;51.59;99666.75;5090269;28;20471;-32
2022/09/02 10:14:38;;;;;;;11.20;6.38;;;;;;;30.40;53.37;99638.72;5090086;28;20031;-30
2022/09/02 10:17:45;;;;;;;10.60;6.35;;;;;;;30.20;53.00;99651.69;5108203;28;20019;-29
2022/09/02 10:20:49;;;;;;;9.93;6.40;;;;;;;30.00;54.85;99656.38;5089837;28;20024;-35
2022/09/02 10:23:43;;;;;;;10.45;6.65;;;;;;;29.80;54.17;99663.78;5090138;28;20046;-30
2022/09/02 10:26:35;;;;;;;11.55;6.28;;;;;;;29.87;55.75;99674.91;5108321;28;20024;-28
2022/09/02 10:29:07;;;;;;;11.63;6.53;;;;;;;30.04;52.44;99680.03;5107458;28;20073;-33
2022/09/02 10:31:37;;;;;;;11.25;7.15;;;;;;;29.87;54.07;99665.88;5090151;28;20096;-30
2022/09/02 10:34:25;;;;;;;13.20;5.97;;;;;;;29.57;53.27;99647.94;5089540;28;20131;-29
2022/09/02 10:37:06;;;;;;;11.82;6.35;;;;;;;29.56;54.82;99662.81;5056064;28;20118;-31
2022/09/02 10:39:43;;;;;;;12.30;7.47;;;;;;;29.50;54.52;99669.72;5089186;28;20553;-30
2022/09/02 10:42:35;;;;;;;9.30;5.97;;;;;;;29.35;53.59;99654.06;5108176;28;20027;-33
2022/09/02 10:45:27;;;;;;;13.75;6.63;;;;;;;29.21;54.84;99649.81;5092643;28;20830;-29
2022/09/02 10:48:17;;;;;;;11.85;6.65;;;;;;;29.17;54.23;99637.94;5093728;28;20035;-29
2022/09/02 10:50:52;;;;;;;12.88;6.60;;;;;;;29.21;56.10;99682.75;5107933;28;20031;-30
2022/09/02 10:53:35;;;;;;;14.07;6.25;;;;;;;29.20;56.64;99681.19;5089781;28;20555;-29
2022/09/02 10:56:15;;;;;;;12.68;6.25;;;;;;;28.87;54.59;99651.25;5089157;28;20156;-31
2022/09/02 10:59:02;;;;;;;12.43;6.30;;;;;;;29.14;55.50;99632.38;5089333;28;20062;-31
2022/09/02 11:01:32;;;;;;;10.02;6.68;;;;;;;28.91;53.79;99645.88;5089397;28;20510;-28
2022/09/02 11:04:32;;;;;;;10.93;6.15;;;;;;;29.03;54.25;99648.53;5089109;28;20133;-30
2022/09/02 11:06:59;;;;;;;9.57;6.38;;;;;;;29.02;56.37;99653.22;5107890;28;20035;-30
2022/09/02 11:09:24;;;;;;;11.60;7.50;;;;;;;28.82;56.56;99655.06;5089246;28;20109;-28
2022/09/02 11:11:56;;;;;;;12.73;7.28;;;;;;;28.93;56.30;99636.16;5107336;28;20027;-30
2022/09/02 11:14:42;;;;;;;11.05;7.32;;;;;;;29.00;56.95;99643.75;5107709;28;20139;-30
2022/09/02 11:17:35;;;;;;;11.35;7.35;;;;;;;29.05;55.69;99638.81;5088774;28;20066;-30
2022/09/02 11:20:13;;;;;;;10.40;8.10;;;;;;;29.03;58.65;99656.78;5107365;28;20092;-27
2022/09/02 11:22:58;;;;;;;10.98;7.47;;;;;;;29.01;59.26;99670.06;5088813;28;20161;-29
2022/09/02 11:25:28;;;;;;;14.30;8.70;;;;;;;27.19;66.79;99653.28;5088498;28;20028;-28
2022/09/02 11:28:09;;;;;;;15.00;8.30;;;;;;;26.26;71.59;99655.50;5088399;28;20023;-29
2022/09/02 11:30:44;;;;;;;14.82;8.48;;;;;;;24.94;78.97;99672.81;5107084;28;20038;-28
2022/09/02 11:33:18;;;;;;;12.82;8.00;;;;;;;24.05;83.25;99673.97;5106606;28;20032;-28
2022/09/02 11:35:44;;;;;;;12.07;7.68;;;;;;;23.64;86.32;99669.69;5106907;28;20031;-29